EGAA/BFS METAR and TAF weather

Enter ICAO airport designator
Station Type Date Time Source
EGAA METAR 2021/07/28 19:20 UTC NOAA

EGAA 281920Z AUTO 31009KT 270V330 9999 FEW013/// SCT049/// //////CB 14/12 Q1002


Station Type Date Time Source
EGAA Decoded METAR 2021/07/28 19:20 UTC NOAA

Belfast / Aldergrove Airport, United Kingdom (EGAA) 54-39N 006-13W 0M
Jul 28, 2021 - 03:20 PM EDT / 2021.07.28 1920 UTC
Wind: from the NW (310 degrees) at 10 MPH (9 KT) (direction variable):0
Visibility: greater than 7 mile(s):0
Sky conditions: partly cloudy
Weather: Cumulonimbus clouds observed
Temperature: 57 F (14 C)
Dew Point: 53 F (12 C)
Relative Humidity: 87%
Pressure (altimeter): 29.59 in. Hg (1002 hPa)
ob: EGAA 281920Z AUTO 31009KT 270V330 9999 FEW013/// SCT049/// //////CB 14/12 Q1002
cycle: 19

Station Type Date Time Source
EGAA TAF 2021/07/28 18:06 UTC NOAA

TAF TAF EGAA 281701Z 2818/2918 27008KT 9999 FEW015 SCT035
TEMPO 2818/2912 6000 SHRA BKN014 PROB30
TEMPO 2818/2820 3000 +SHRA +TSRA BKN010 BKN020CB
BECMG 2902/2905 24015G25KT PROB30
TEMPO 2904/2909 4000 +RA BKN007
BECMG 2907/2910 32011KT PROB30
TEMPO 2912/2918 8000 SHRA BKN014

Example: see airport list